createdAt,value
2023-05-22T00:00:13.358Z,100649.53
2023-05-22T00:02:43.308Z,100645.25
2023-05-22T00:05:14.704Z,100710.69
2023-05-22T00:07:44.256Z,100571.00
2023-05-22T00:10:10.919Z,100679.25
2023-05-22T00:12:37.779Z,100700.63
2023-05-22T00:15:04.682Z,100687.44
2023-05-22T00:17:31.145Z,100680.03
2023-05-22T00:20:04.470Z,100680.41
2023-05-22T00:22:31.564Z,100663.16
2023-05-22T00:24:58.174Z,100668.63
2023-05-22T00:27:24.778Z,100674.91
2023-05-22T00:29:51.304Z,100681.75
2023-05-22T00:32:17.728Z,100679.66
2023-05-22T00:34:44.172Z,100556.06
2023-05-22T00:37:10.836Z,100660.47
2023-05-22T00:39:37.231Z,100646.00
2023-05-22T00:42:03.908Z,100642.63
2023-05-22T00:44:30.320Z,100654.06
2023-05-22T00:46:57.066Z,100652.47
2023-05-22T00:49:23.520Z,100541.88
2023-05-22T00:51:50.221Z,100658.06
2023-05-22T00:54:17.131Z,100664.53
2023-05-22T00:56:43.780Z,100638.53
2023-05-22T00:59:10.263Z,100639.09
2023-05-22T01:01:41.912Z,100666.47
2023-05-22T01:04:12.660Z,100675.97
2023-05-22T01:06:41.262Z,100625.22
2023-05-22T01:09:08.080Z,100658.81
2023-05-22T01:12:07.524Z,100616.28
2023-05-22T01:14:41.985Z,100674.78
2023-05-22T01:17:24.410Z,100601.31
2023-05-22T01:19:53.948Z,100680.72
2023-05-22T01:22:58.375Z,100684.91
2023-05-22T01:26:05.689Z,100679.53
2023-05-22T01:28:50.771Z,100681.25
2023-05-22T01:31:19.168Z,100655.22
2023-05-22T01:33:49.015Z,100627.88
2023-05-22T01:36:20.212Z,100628.06
2023-05-22T01:38:47.256Z,100667.75
2023-05-22T01:41:14.153Z,100658.63
2023-05-22T01:43:41.705Z,100666.94
2023-05-22T01:46:08.205Z,100626.44
2023-05-22T01:48:35.858Z,100561.97
2023-05-22T01:51:12.017Z,100662.28
2023-05-22T01:53:48.237Z,100644.41
2023-05-22T01:56:20.854Z,100650.28
2023-05-22T01:59:01.514Z,100677.63
2023-05-22T02:01:32.074Z,100648.72
2023-05-22T02:03:59.285Z,100639.13
2023-05-22T02:06:28.656Z,100627.25
2023-05-22T02:08:55.754Z,100667.72
2023-05-22T02:11:26.824Z,100578.06
2023-05-22T02:13:53.263Z,100639.78
2023-05-22T02:16:22.083Z,100636.25
2023-05-22T02:18:48.638Z,100644.81
2023-05-22T02:21:15.031Z,100634.88
2023-05-22T02:23:41.492Z,100639.19
2023-05-22T02:26:08.066Z,100632.03
2023-05-22T02:28:34.538Z,100663.31
2023-05-22T02:31:02.672Z,100521.16
2023-05-22T02:33:29.878Z,100638.88
2023-05-22T02:35:56.239Z,100643.16
2023-05-22T02:38:22.783Z,100666.28
2023-05-22T02:40:49.709Z,100532.81
2023-05-22T02:43:16.076Z,100648.72
2023-05-22T02:45:42.441Z,100656.50
2023-05-22T02:48:08.897Z,100656.25
2023-05-22T02:50:35.374Z,100644.34
2023-05-22T02:53:01.750Z,100651.00
2023-05-22T02:55:28.131Z,100645.03
2023-05-22T02:57:54.534Z,100658.91
2023-05-22T03:00:22.507Z,100655.97
2023-05-22T03:02:49.163Z,100633.72
2023-05-22T03:05:17.723Z,100632.19
2023-05-22T03:07:48.140Z,100645.25
2023-05-22T03:10:15.181Z,100519.88
2023-05-22T03:12:41.582Z,100621.97
2023-05-22T03:15:08.592Z,100647.38
2023-05-22T03:17:35.036Z,100642.25
2023-05-22T03:20:01.471Z,100636.06
2023-05-22T03:22:27.872Z,100638.06
2023-05-22T03:24:54.323Z,100648.75
2023-05-22T03:27:21.215Z,100558.81
2023-05-22T03:29:47.654Z,100567.22
2023-05-22T03:32:14.184Z,100645.50
2023-05-22T03:34:41.055Z,100641.03
2023-05-22T03:37:08.948Z,100607.09
2023-05-22T03:39:36.034Z,100633.13
2023-05-22T03:42:02.490Z,100642.28
2023-05-22T03:44:28.922Z,100619.25
2023-05-22T03:46:55.369Z,100651.53
2023-05-22T03:49:21.779Z,100662.38
2023-05-22T03:51:48.151Z,100632.09
2023-05-22T03:54:14.540Z,100634.84
2023-05-22T03:56:40.951Z,100660.34
2023-05-22T03:59:07.417Z,100680.56
2023-05-22T04:01:33.799Z,100658.97
2023-05-22T04:04:00.825Z,100589.75
2023-05-22T04:06:27.227Z,100646.66
2023-05-22T04:08:53.659Z,100651.44
2023-05-22T04:11:20.929Z,100658.28
2023-05-22T04:13:49.241Z,100681.88
2023-05-22T04:16:17.427Z,100661.19
2023-05-22T04:18:44.340Z,100655.88
2023-05-22T04:21:10.778Z,100580.78
2023-05-22T04:23:38.501Z,100658.34
2023-05-22T04:26:04.929Z,100653.38
2023-05-22T04:28:31.430Z,100645.03
2023-05-22T04:30:57.883Z,100662.88
2023-05-22T04:33:28.865Z,100627.97
2023-05-22T04:35:55.241Z,100567.84
2023-05-22T04:38:21.845Z,100661.47
2023-05-22T04:40:48.377Z,100677.09
2023-05-22T04:43:14.764Z,100674.59
2023-05-22T04:45:42.271Z,100667.25
2023-05-22T04:48:08.794Z,100666.94
2023-05-22T04:50:35.972Z,100666.63
2023-05-22T04:53:04.213Z,100680.47
2023-05-22T04:55:33.886Z,100630.97
2023-05-22T04:58:00.397Z,100659.44
2023-05-22T05:00:28.649Z,100683.59
2023-05-22T05:02:55.288Z,100679.56
2023-05-22T05:05:21.792Z,100691.28
2023-05-22T05:07:50.285Z,100689.19
2023-05-22T05:10:17.038Z,100674.56
2023-05-22T05:12:43.663Z,100675.66
2023-05-22T05:15:10.455Z,100658.50
2023-05-22T05:17:37.103Z,100665.06
2023-05-22T05:20:06.950Z,100681.19
2023-05-22T05:22:33.724Z,100683.91
2023-05-22T05:25:00.166Z,100653.53
2023-05-22T05:27:26.547Z,100687.34
2023-05-22T05:29:52.916Z,100680.47
2023-05-22T05:32:43.583Z,100675.09
2023-05-22T05:35:26.475Z,100630.09
2023-05-22T05:37:53.025Z,100585.41
2023-05-22T05:40:19.576Z,100683.91
2023-05-22T05:42:45.955Z,100674.25
2023-05-22T05:45:13.249Z,100710.56
2023-05-22T05:47:40.609Z,100680.63
2023-05-22T05:50:07.467Z,100712.63
2023-05-22T05:52:34.120Z,100696.84
2023-05-22T05:55:03.626Z,100726.00
2023-05-22T05:57:30.973Z,100661.81
2023-05-22T05:59:57.406Z,100672.69
2023-05-22T06:02:24.404Z,100685.38
2023-05-22T06:04:50.937Z,100719.63
2023-05-22T06:07:17.507Z,100702.16
2023-05-22T06:09:44.116Z,100708.06
2023-05-22T06:12:13.449Z,100589.13
2023-05-22T06:14:42.777Z,100697.66
2023-05-22T06:17:09.273Z,100667.91
2023-05-22T06:19:35.863Z,100723.81
2023-05-22T06:22:02.466Z,100694.81
2023-05-22T06:24:28.944Z,100621.38
2023-05-22T06:26:55.455Z,100654.56
2023-05-22T06:29:22.845Z,100712.59
2023-05-22T06:31:52.328Z,100697.47
2023-05-22T06:34:22.498Z,100705.19
2023-05-22T06:36:52.202Z,100705.81
2023-05-22T06:39:19.083Z,100736.13
2023-05-22T06:41:45.552Z,100736.47
2023-05-22T06:44:12.861Z,100716.31
2023-05-22T06:46:39.459Z,100749.16
2023-05-22T06:49:06.219Z,100743.69
2023-05-22T06:51:34.370Z,100632.81
2023-05-22T06:54:00.913Z,100744.22
2023-05-22T06:56:27.391Z,100733.00
2023-05-22T06:58:53.830Z,100751.56
2023-05-22T07:01:20.629Z,100725.34
2023-05-22T07:03:47.031Z,100652.28
2023-05-22T07:06:13.476Z,100738.19
2023-05-22T07:08:39.935Z,100753.13
2023-05-22T07:11:07.672Z,100721.16
2023-05-22T07:13:34.101Z,100715.69
2023-05-22T07:16:00.810Z,100764.97
2023-05-22T07:18:27.257Z,100648.88
2023-05-22T07:20:53.727Z,100756.91
2023-05-22T07:23:20.167Z,100776.44
2023-05-22T07:25:46.598Z,100695.28
2023-05-22T07:28:13.102Z,100762.91
2023-05-22T07:30:39.893Z,100755.59
2023-05-22T07:33:06.762Z,100711.53
2023-05-22T07:35:33.564Z,100772.44
2023-05-22T07:38:00.057Z,100749.75
2023-05-22T07:40:27.342Z,100751.44
2023-05-22T07:42:53.877Z,100710.06
2023-05-22T07:45:22.009Z,100761.38
2023-05-22T07:47:48.572Z,100741.53
2023-05-22T07:50:14.995Z,100771.97
2023-05-22T07:52:41.457Z,100786.63
2023-05-22T07:55:08.496Z,100772.41
2023-05-22T07:57:36.151Z,100768.97
2023-05-22T08:00:09.416Z,100792.47
2023-05-22T08:02:36.586Z,100775.81
2023-05-22T08:05:04.459Z,100725.59
2023-05-22T08:07:32.876Z,100708.44
2023-05-22T08:10:02.419Z,100714.03
2023-05-22T08:12:28.957Z,100729.25
2023-05-22T08:14:55.492Z,100791.88
2023-05-22T08:17:21.972Z,100730.19
2023-05-22T08:19:48.800Z,100771.81
2023-05-22T08:22:15.286Z,100718.19
2023-05-22T08:24:41.729Z,100801.44
2023-05-22T08:27:08.102Z,100785.22
2023-05-22T08:29:38.503Z,100791.78
2023-05-22T08:32:05.800Z,100811.66
2023-05-22T08:34:33.036Z,100797.34
2023-05-22T08:36:59.991Z,100797.41
2023-05-22T08:39:26.472Z,100802.63
2023-05-22T08:41:53.064Z,100721.91
2023-05-22T08:44:20.460Z,100802.63
2023-05-22T08:47:00.219Z,100814.28
2023-05-22T08:49:26.992Z,100764.56
2023-05-22T08:51:57.132Z,100800.97
2023-05-22T08:54:26.290Z,100810.00
2023-05-22T08:56:57.161Z,100702.63
2023-05-22T08:59:24.828Z,100770.06
2023-05-22T09:01:52.752Z,100759.81
2023-05-22T09:04:23.561Z,100805.97
2023-05-22T09:06:50.739Z,100782.28
2023-05-22T09:09:17.882Z,100764.97
2023-05-22T09:11:44.360Z,100799.22
2023-05-22T09:14:11.567Z,100816.22
2023-05-22T09:16:46.655Z,100789.13
2023-05-22T09:19:14.939Z,100760.31
2023-05-22T09:21:43.286Z,100780.97
2023-05-22T09:24:13.896Z,100797.94
2023-05-22T09:26:41.084Z,100819.50
2023-05-22T09:29:07.972Z,100816.34
2023-05-22T09:31:42.605Z,100795.72
2023-05-22T09:34:10.746Z,100824.31
2023-05-22T09:36:37.162Z,100819.88
2023-05-22T09:39:04.695Z,100811.31
2023-05-22T09:41:35.228Z,100732.94
2023-05-22T09:44:02.265Z,100771.50
2023-05-22T09:46:29.596Z,100820.47
2023-05-22T09:48:56.064Z,100739.94
2023-05-22T09:51:26.551Z,100742.16
2023-05-22T09:54:01.136Z,100791.88
2023-05-22T09:56:38.655Z,100746.00
2023-05-22T09:59:09.475Z,100840.09
2023-05-22T10:01:38.496Z,100844.56
2023-05-22T10:04:06.924Z,100814.91
2023-05-22T10:06:34.706Z,100784.75
2023-05-22T10:09:09.121Z,100784.44
2023-05-22T10:11:47.792Z,100788.25
2023-05-22T10:14:15.742Z,100697.03
2023-05-22T10:16:44.888Z,100807.44
2023-05-22T10:19:12.854Z,100774.16
2023-05-22T10:21:41.450Z,100792.28
2023-05-22T10:24:09.944Z,100824.16
2023-05-22T10:26:37.338Z,100742.28
2023-05-22T10:29:14.677Z,100836.34
2023-05-22T10:31:53.727Z,100835.50
2023-05-22T10:35:10.843Z,100820.50
2023-05-22T10:37:56.574Z,100737.50
2023-05-22T10:40:29.258Z,100819.72
2023-05-22T10:43:03.995Z,100832.56
2023-05-22T10:45:31.417Z,100779.44
2023-05-22T10:48:09.456Z,100747.84
2023-05-22T10:50:36.280Z,100819.38
2023-05-22T10:53:28.199Z,100835.97
2023-05-22T10:55:56.858Z,100832.00
2023-05-22T10:58:29.244Z,100823.75
2023-05-22T11:01:11.678Z,100830.13
2023-05-22T11:04:03.188Z,100819.63
2023-05-22T11:06:31.175Z,100694.13
2023-05-22T11:08:57.674Z,100717.22
2023-05-22T11:11:30.449Z,100817.81
2023-05-22T11:14:03.651Z,100762.56
2023-05-22T11:16:33.706Z,100811.28
2023-05-22T11:19:22.084Z,100767.56
2023-05-22T11:21:50.129Z,100769.97
2023-05-22T11:24:18.058Z,100770.16
2023-05-22T11:26:44.736Z,100786.56
2023-05-22T11:29:11.129Z,100793.00
2023-05-22T11:31:38.622Z,100808.13
2023-05-22T11:34:05.300Z,100701.94
2023-05-22T11:36:32.316Z,100739.75
2023-05-22T11:39:02.052Z,100797.97
2023-05-22T11:41:34.167Z,100812.06
2023-05-22T11:44:01.489Z,100803.09
2023-05-22T11:46:28.126Z,100788.84
2023-05-22T11:48:54.788Z,100781.63
2023-05-22T11:51:21.568Z,100789.59
2023-05-22T11:53:48.317Z,100731.44
2023-05-22T11:56:14.808Z,100713.41
2023-05-22T11:58:41.195Z,100698.47
2023-05-22T12:01:07.600Z,100704.22
2023-05-22T12:03:34.277Z,100760.38
2023-05-22T12:06:01.789Z,100792.00
2023-05-22T12:08:28.539Z,100794.56
2023-05-22T12:10:55.409Z,100759.69
2023-05-22T12:13:29.764Z,100766.25
2023-05-22T12:16:02.583Z,100779.88
2023-05-22T12:18:39.095Z,100673.59
2023-05-22T12:21:06.577Z,100739.44
2023-05-22T12:23:32.972Z,100775.63
2023-05-22T12:26:01.130Z,100767.28
2023-05-22T12:28:28.333Z,100692.31
2023-05-22T12:30:56.096Z,100761.69
2023-05-22T12:33:29.438Z,100759.88
2023-05-22T12:35:58.552Z,100757.56
2023-05-22T12:38:26.992Z,100775.13
2023-05-22T12:40:54.900Z,100698.50
2023-05-22T12:43:23.478Z,100754.97
2023-05-22T12:45:50.035Z,100725.94
2023-05-22T12:48:16.789Z,100738.00
2023-05-22T12:50:44.448Z,100761.09
2023-05-22T12:53:10.860Z,100756.91
2023-05-22T12:55:38.246Z,100654.75
2023-05-22T12:58:05.234Z,100729.75
2023-05-22T13:00:32.276Z,100739.31
2023-05-22T13:03:07.605Z,100763.19
2023-05-22T13:05:33.995Z,100764.88
2023-05-22T13:08:00.468Z,100674.84
2023-05-22T13:10:26.965Z,100748.75
2023-05-22T13:12:53.444Z,100753.50
2023-05-22T13:15:19.910Z,100705.66
2023-05-22T13:17:46.329Z,100672.88
2023-05-22T13:20:13.410Z,100743.53
2023-05-22T13:22:40.583Z,100744.75
2023-05-22T13:25:07.349Z,100734.00
2023-05-22T13:27:34.157Z,100715.03
2023-05-22T13:30:00.627Z,100747.69
2023-05-22T13:32:27.202Z,100766.16
2023-05-22T13:34:53.647Z,100723.56
2023-05-22T13:37:20.133Z,100742.28
2023-05-22T13:39:46.680Z,100713.31
2023-05-22T13:42:13.228Z,100679.97
2023-05-22T13:44:39.616Z,100728.50
2023-05-22T13:47:06.093Z,100741.00
2023-05-22T13:49:32.601Z,100658.53
2023-05-22T13:51:59.230Z,100765.72
2023-05-22T13:54:25.832Z,100651.44
2023-05-22T13:56:52.258Z,100736.97
2023-05-22T13:59:18.744Z,100731.59
2023-05-22T14:01:45.245Z,100759.84
2023-05-22T14:04:11.726Z,100753.66
2023-05-22T14:06:38.233Z,100720.75
2023-05-22T14:09:07.135Z,100745.94
2023-05-22T14:11:34.112Z,100741.09
2023-05-22T14:14:00.654Z,100743.50
2023-05-22T14:16:27.283Z,100741.56
2023-05-22T14:18:53.823Z,100740.38
2023-05-22T14:21:20.790Z,100696.28
2023-05-22T14:23:47.304Z,100745.22
2023-05-22T14:26:14.465Z,100729.16
2023-05-22T14:28:41.708Z,100727.16
2023-05-22T14:31:08.141Z,100731.06
2023-05-22T14:33:35.725Z,100651.22
2023-05-22T14:36:02.486Z,100693.31
2023-05-22T14:38:33.763Z,100674.94
2023-05-22T14:41:03.350Z,100711.44
2023-05-22T14:43:29.897Z,100706.00
2023-05-22T14:45:57.924Z,100727.44
2023-05-22T14:48:26.472Z,100652.97
2023-05-22T14:50:56.065Z,100738.81
2023-05-22T14:53:23.322Z,100739.97
2023-05-22T14:55:49.767Z,100627.94
2023-05-22T14:58:16.219Z,100705.50
2023-05-22T15:00:42.747Z,100725.28
2023-05-22T15:03:09.264Z,100721.44
2023-05-22T15:05:35.923Z,100722.34
2023-05-22T15:08:02.445Z,100723.22
2023-05-22T15:10:28.959Z,100644.84
2023-05-22T15:12:55.391Z,100624.81
2023-05-22T15:15:21.935Z,100696.09
2023-05-22T15:17:48.351Z,100710.94
2023-05-22T15:20:14.916Z,100698.34
2023-05-22T15:22:41.383Z,100678.34
2023-05-22T15:25:11.473Z,100682.31
2023-05-22T15:27:39.361Z,100697.31
2023-05-22T15:30:06.724Z,100704.31
2023-05-22T15:32:33.210Z,100713.59
2023-05-22T15:34:59.862Z,100699.63
2023-05-22T15:37:26.995Z,100654.63
2023-05-22T15:39:53.407Z,100682.13
2023-05-22T15:42:20.034Z,100697.03
2023-05-22T15:44:46.500Z,100684.41
2023-05-22T15:47:13.001Z,100669.88
2023-05-22T15:49:39.501Z,100690.69
2023-05-22T15:52:06.095Z,100691.81
2023-05-22T15:54:32.557Z,100613.25
2023-05-22T15:56:59.082Z,100706.78
2023-05-22T15:59:25.599Z,100697.50
2023-05-22T16:01:52.017Z,100678.13
2023-05-22T16:04:18.454Z,100686.25
2023-05-22T16:06:45.012Z,100701.94
2023-05-22T16:09:11.434Z,100702.13
2023-05-22T16:11:37.934Z,100619.59
2023-05-22T16:14:04.779Z,100710.22
2023-05-22T16:16:31.262Z,100645.81
2023-05-22T16:18:57.686Z,100591.72
2023-05-22T16:21:24.218Z,100613.34
2023-05-22T16:23:50.750Z,100698.38
2023-05-22T16:26:17.130Z,100673.72
2023-05-22T16:28:43.667Z,100622.16
2023-05-22T16:31:10.216Z,100612.66
2023-05-22T16:33:37.488Z,100709.88
2023-05-22T16:36:04.543Z,100604.78
2023-05-22T16:38:31.165Z,100691.41
2023-05-22T16:40:57.982Z,100639.59
2023-05-22T16:43:24.625Z,100712.22
2023-05-22T16:45:51.320Z,100654.19
2023-05-22T16:48:18.161Z,100633.69
2023-05-22T16:50:46.653Z,100731.72
2023-05-22T16:53:13.705Z,100664.31
2023-05-22T16:55:40.400Z,100671.16
2023-05-22T16:58:07.135Z,100735.50
2023-05-22T17:00:33.718Z,100681.34
2023-05-22T17:03:00.609Z,100667.91
2023-05-22T17:05:27.062Z,100671.78
2023-05-22T17:07:53.488Z,100713.00
2023-05-22T17:10:19.959Z,100682.78
2023-05-22T17:12:46.460Z,100732.91
2023-05-22T17:15:12.881Z,100722.97
2023-05-22T17:17:39.422Z,100712.75
2023-05-22T17:20:07.237Z,100704.19
2023-05-22T17:22:36.051Z,100742.00
2023-05-22T17:25:02.717Z,100740.53
2023-05-22T17:27:35.972Z,100748.78
2023-05-22T17:30:04.775Z,100746.06
2023-05-22T17:32:31.585Z,100747.91
2023-05-22T17:34:58.528Z,100748.06
2023-05-22T17:37:24.932Z,100694.81
2023-05-22T17:39:51.682Z,100760.25
2023-05-22T17:42:18.134Z,100692.06
2023-05-22T17:44:44.604Z,100775.44
2023-05-22T17:47:11.290Z,100767.38
2023-05-22T17:49:37.808Z,100703.59
2023-05-22T17:52:04.384Z,100669.53
2023-05-22T17:54:35.292Z,100734.59
2023-05-22T17:57:04.034Z,100752.63
2023-05-22T17:59:32.036Z,100786.25
2023-05-22T18:01:58.831Z,100710.19
2023-05-22T18:04:25.380Z,100757.69
2023-05-22T18:06:52.256Z,100787.00
2023-05-22T18:09:18.811Z,100682.34
2023-05-22T18:11:45.242Z,100781.47
2023-05-22T18:14:11.745Z,100788.63
2023-05-22T18:16:38.255Z,100789.50
2023-05-22T18:19:04.753Z,100786.69
2023-05-22T18:21:32.128Z,100742.34
2023-05-22T18:23:58.729Z,100784.66
2023-05-22T18:26:26.628Z,100755.19
2023-05-22T18:28:53.169Z,100692.47
2023-05-22T18:31:19.778Z,100773.13
2023-05-22T18:33:46.694Z,100806.03
2023-05-22T18:36:13.158Z,100803.72
2023-05-22T18:38:39.747Z,100764.41
2023-05-22T18:41:06.636Z,100802.66
2023-05-22T18:43:33.648Z,100789.19
2023-05-22T18:46:00.312Z,100812.91
2023-05-22T18:48:28.129Z,100812.50
2023-05-22T18:50:57.639Z,100729.97
2023-05-22T18:53:25.301Z,100813.56
2023-05-22T18:55:52.545Z,100824.56
2023-05-22T18:58:19.278Z,100777.81
2023-05-22T19:00:46.010Z,100722.38
2023-05-22T19:03:12.568Z,100827.03
2023-05-22T19:05:39.041Z,100787.66
2023-05-22T19:08:06.122Z,100838.03
2023-05-22T19:10:33.030Z,100842.63
2023-05-22T19:12:59.591Z,100853.56
2023-05-22T19:15:26.123Z,100832.59
2023-05-22T19:17:52.670Z,100759.06
2023-05-22T19:20:19.179Z,100840.66
2023-05-22T19:22:45.692Z,100865.81
2023-05-22T19:25:12.452Z,100792.63
2023-05-22T19:27:39.406Z,100748.13
2023-05-22T19:30:06.789Z,100862.72
2023-05-22T19:32:33.269Z,100870.16
2023-05-22T19:34:59.695Z,100774.38
2023-05-22T19:37:26.124Z,100874.19
2023-05-22T19:39:54.108Z,100874.34
2023-05-22T19:42:20.523Z,100813.28
2023-05-22T19:44:47.036Z,100887.53
2023-05-22T19:47:13.419Z,100882.97
2023-05-22T19:49:39.840Z,100898.22
2023-05-22T19:52:06.662Z,100906.78
2023-05-22T19:54:33.109Z,100908.09
2023-05-22T19:56:59.611Z,100885.69
2023-05-22T19:59:26.902Z,100881.94
2023-05-22T20:01:53.954Z,100920.78
2023-05-22T20:04:21.382Z,100909.25
2023-05-22T20:06:48.414Z,100869.47
2023-05-22T20:09:15.326Z,100824.41
2023-05-22T20:11:41.775Z,100896.47
2023-05-22T20:14:08.358Z,100912.75
2023-05-22T20:16:34.961Z,100917.22
2023-05-22T20:19:02.518Z,100911.50
2023-05-22T20:21:29.003Z,100915.56
2023-05-22T20:23:55.584Z,100910.53
2023-05-22T20:26:22.108Z,100928.81
2023-05-22T20:28:48.600Z,100875.78
2023-05-22T20:31:15.156Z,100914.69
2023-05-22T20:33:41.689Z,100940.59
2023-05-22T20:36:08.575Z,100920.03
2023-05-22T20:38:35.155Z,100933.09
2023-05-22T20:41:02.491Z,100946.63
2023-05-22T20:43:30.642Z,100864.75
2023-05-22T20:45:57.361Z,100929.06
2023-05-22T20:48:23.995Z,100958.75
2023-05-22T20:50:50.708Z,100955.31
2023-05-22T20:53:17.534Z,100964.47
2023-05-22T20:55:44.117Z,100908.03
2023-05-22T20:58:10.619Z,100883.81
2023-05-22T21:00:37.332Z,100901.72
2023-05-22T21:03:03.755Z,100969.72
2023-05-22T21:05:30.443Z,100960.38
2023-05-22T21:07:57.907Z,100975.72
2023-05-22T21:10:24.477Z,100968.69
2023-05-22T21:12:50.862Z,100942.06
2023-05-22T21:15:17.496Z,100849.56
2023-05-22T21:17:44.068Z,100908.44
2023-05-22T21:20:10.918Z,100946.56
2023-05-22T21:22:37.351Z,100949.53
2023-05-22T21:25:04.121Z,100935.75
2023-05-22T21:27:30.913Z,100943.97
2023-05-22T21:30:13.368Z,100940.72
2023-05-22T21:32:39.779Z,100899.34
2023-05-22T21:35:06.766Z,100973.94
2023-05-22T21:37:33.129Z,100997.34
2023-05-22T21:39:59.596Z,100989.91
2023-05-22T21:42:26.360Z,100979.84
2023-05-22T21:44:52.774Z,100981.50
2023-05-22T21:47:19.212Z,100963.38
2023-05-22T21:49:45.747Z,100989.31
2023-05-22T21:52:12.129Z,100967.50
2023-05-22T21:54:39.430Z,101000.94
2023-05-22T21:57:06.243Z,100974.84
2023-05-22T21:59:32.651Z,100984.81
2023-05-22T22:01:59.054Z,100962.44
2023-05-22T22:04:25.509Z,101000.59
2023-05-22T22:06:51.893Z,101009.50
2023-05-22T22:09:18.257Z,101012.56
2023-05-22T22:11:44.650Z,101008.09
2023-05-22T22:14:11.144Z,100964.69
2023-05-22T22:16:37.738Z,100957.81
2023-05-22T22:19:04.746Z,100976.41
2023-05-22T22:21:33.370Z,100889.38
2023-05-22T22:23:59.770Z,100982.34
2023-05-22T22:26:30.532Z,100990.38
2023-05-22T22:28:57.525Z,101005.63
2023-05-22T22:31:24.411Z,101006.28
2023-05-22T22:33:50.953Z,100982.56
2023-05-22T22:36:17.506Z,101010.38
2023-05-22T22:38:43.952Z,101004.25
2023-05-22T22:41:10.572Z,101033.44
2023-05-22T22:43:36.994Z,100936.34
2023-05-22T22:46:03.404Z,100979.00
2023-05-22T22:48:29.815Z,101032.53
2023-05-22T22:50:56.360Z,101026.53
2023-05-22T22:53:22.763Z,101051.56
2023-05-22T22:55:55.743Z,101023.09
2023-05-22T22:58:22.470Z,101057.81
2023-05-22T23:00:48.938Z,101051.81
2023-05-22T23:03:15.542Z,100956.59
2023-05-22T23:05:42.284Z,101051.69
2023-05-22T23:08:08.914Z,101053.22
2023-05-22T23:10:35.453Z,101062.31
2023-05-22T23:13:01.807Z,101070.16
2023-05-22T23:15:28.330Z,101047.66
2023-05-22T23:17:54.726Z,101058.72
2023-05-22T23:20:21.251Z,100993.28
2023-05-22T23:22:47.691Z,101011.47
2023-05-22T23:25:14.111Z,101082.16
2023-05-22T23:27:40.483Z,101023.16
2023-05-22T23:30:08.030Z,101059.56
2023-05-22T23:32:34.428Z,101076.84
2023-05-22T23:35:00.996Z,100997.72
2023-05-22T23:37:27.457Z,101007.16
2023-05-22T23:39:54.316Z,101049.00
2023-05-22T23:42:20.883Z,100931.16
2023-05-22T23:44:47.494Z,101048.03
2023-05-22T23:47:13.938Z,101034.41
2023-05-22T23:49:40.336Z,101033.13
2023-05-22T23:52:07.959Z,101027.00
2023-05-22T23:54:34.331Z,101027.84
2023-05-22T23:57:00.766Z,101047.47
2023-05-22T23:59:27.266Z,100957.50
